sensor_id;sensor_type;location;lat;lon;timestamp;pressure;altitude;pressure_sealevel;temperature
76009;BMP280;64700;52.130;21.270;2023-03-01T00:01:27;101902.38;;;17.79
76009;BMP280;64700;52.130;21.270;2023-03-01T00:03:53;101898.91;;;17.79
76009;BMP280;64700;52.130;21.270;2023-03-01T00:06:20;101898.50;;;17.80
76009;BMP280;64700;52.130;21.270;2023-03-01T00:08:45;101903.16;;;17.83
76009;BMP280;64700;52.130;21.270;2023-03-01T00:11:15;101901.59;;;17.79
76009;BMP280;64700;52.130;21.270;2023-03-01T00:13:42;101896.63;;;17.77
76009;BMP280;64700;52.130;21.270;2023-03-01T00:16:09;101889.31;;;17.74
76009;BMP280;64700;52.130;21.270;2023-03-01T00:18:35;101891.63;;;17.76
76009;BMP280;64700;52.130;21.270;2023-03-01T00:21:00;101893.22;;;17.73
76009;BMP280;64700;52.130;21.270;2023-03-01T00:23:26;101892.06;;;17.71
76009;BMP280;64700;52.130;21.270;2023-03-01T00:25:52;101889.75;;;17.69
76009;BMP280;64700;52.130;21.270;2023-03-01T00:28:17;101886.25;;;17.72
76009;BMP280;64700;52.130;21.270;2023-03-01T00:30:43;101892.06;;;17.71
76009;BMP280;64700;52.130;21.270;2023-03-01T00:33:09;101889.38;;;17.71
76009;BMP280;64700;52.130;21.270;2023-03-01T00:35:35;101888.59;;;17.70
76009;BMP280;64700;52.130;21.270;2023-03-01T00:38:00;101878.59;;;17.67
76009;BMP280;64700;52.130;21.270;2023-03-01T00:40:27;101875.63;;;17.58
76009;BMP280;64700;52.130;21.270;2023-03-01T00:42:53;101876.72;;;17.60
76009;BMP280;64700;52.130;21.270;2023-03-01T00:45:19;101876.38;;;17.58
76009;BMP280;64700;52.130;21.270;2023-03-01T00:47:45;101875.97;;;17.60
76009;BMP280;64700;52.130;21.270;2023-03-01T00:50:11;101872.84;;;17.61
76009;BMP280;64700;52.130;21.270;2023-03-01T00:52:37;101866.78;;;17.54
76009;BMP280;64700;52.130;21.270;2023-03-01T00:55:02;101867.44;;;17.61
76009;BMP280;64700;52.130;21.270;2023-03-01T00:57:28;101869.50;;;17.50
76009;BMP280;64700;52.130;21.270;2023-03-01T00:59:54;101870.28;;;17.51
76009;BMP280;64700;52.130;21.270;2023-03-01T01:02:19;101870.25;;;17.54
76009;BMP280;64700;52.130;21.270;2023-03-01T01:04:45;101868.31;;;17.51
76009;BMP280;64700;52.130;21.270;2023-03-01T01:07:11;101864.19;;;17.43
76009;BMP280;64700;52.130;21.270;2023-03-01T01:09:37;101866.06;;;17.46
76009;BMP280;64700;52.130;21.270;2023-03-01T01:12:03;101862.16;;;17.51
76009;BMP280;64700;52.130;21.270;2023-03-01T01:14:28;101852.94;;;17.48
76009;BMP280;64700;52.130;21.270;2023-03-01T01:16:53;101854.88;;;17.44
76009;BMP280;64700;52.130;21.270;2023-03-01T01:19:19;101853.06;;;17.38
76009;BMP280;64700;52.130;21.270;2023-03-01T01:21:45;101844.13;;;17.41
76009;BMP280;64700;52.130;21.270;2023-03-01T01:24:11;101844.06;;;17.44
76009;BMP280;64700;52.130;21.270;2023-03-01T01:26:37;101840.31;;;17.38
76009;BMP280;64700;52.130;21.270;2023-03-01T01:29:03;101840.97;;;17.46
76009;BMP280;64700;52.130;21.270;2023-03-01T01:31:29;101841.47;;;17.37
76009;BMP280;64700;52.130;21.270;2023-03-01T01:33:55;101845.63;;;17.45
76009;BMP280;64700;52.130;21.270;2023-03-01T01:36:21;101837.97;;;17.40
76009;BMP280;64700;52.130;21.270;2023-03-01T01:38:47;101836.84;;;17.38
76009;BMP280;64700;52.130;21.270;2023-03-01T01:41:12;101839.56;;;17.34
76009;BMP280;64700;52.130;21.270;2023-03-01T01:43:39;101836.91;;;17.31
76009;BMP280;64700;52.130;21.270;2023-03-01T01:46:07;101836.06;;;17.37
76009;BMP280;64700;52.130;21.270;2023-03-01T01:48:46;101834.16;;;17.34
76009;BMP280;64700;52.130;21.270;2023-03-01T01:51:13;101825.69;;;17.32
76009;BMP280;64700;52.130;21.270;2023-03-01T01:53:40;101819.50;;;17.32
76009;BMP280;64700;52.130;21.270;2023-03-01T01:56:07;101809.53;;;17.28
76009;BMP280;64700;52.130;21.270;2023-03-01T01:58:34;101816.50;;;17.26
76009;BMP280;64700;52.130;21.270;2023-03-01T02:00:59;101816.50;;;17.26
76009;BMP280;64700;52.130;21.270;2023-03-01T02:03:27;101808.47;;;17.19
76009;BMP280;64700;52.130;21.270;2023-03-01T02:08:23;101813.44;;;17.24
76009;BMP280;64700;52.130;21.270;2023-03-01T02:10:50;101817.66;;;17.25
76009;BMP280;64700;52.130;21.270;2023-03-01T02:13:17;101817.75;;;17.18
76009;BMP280;64700;52.130;21.270;2023-03-01T02:15:42;101816.22;;;17.17
76009;BMP280;64700;52.130;21.270;2023-03-01T02:18:12;101815.38;;;17.20
76009;BMP280;64700;52.130;21.270;2023-03-01T02:20:48;101813.88;;;17.19
76009;BMP280;64700;52.130;21.270;2023-03-01T02:23:15;101811.56;;;17.17
76009;BMP280;64700;52.130;21.270;2023-03-01T02:30:48;101806.09;;;17.21
76009;BMP280;64700;52.130;21.270;2023-03-01T02:33:33;101801.16;;;17.16
76009;BMP280;64700;52.130;21.270;2023-03-01T02:36:02;101791.94;;;17.13
76009;BMP280;64700;52.130;21.270;2023-03-01T02:38:29;101794.97;;;17.15
76009;BMP280;64700;52.130;21.270;2023-03-01T02:40:54;101794.22;;;17.15
76009;BMP280;64700;52.130;21.270;2023-03-01T02:43:22;101787.59;;;17.19
76009;BMP280;64700;52.130;21.270;2023-03-01T02:45:49;101789.56;;;17.15
76009;BMP280;64700;52.130;21.270;2023-03-01T02:48:16;101793.91;;;17.06
76009;BMP280;64700;52.130;21.270;2023-03-01T02:53:16;101792.38;;;17.08
76009;BMP280;64700;52.130;21.270;2023-03-01T02:55:46;101799.31;;;17.06
76009;BMP280;64700;52.130;21.270;2023-03-01T02:58:12;101789.69;;;17.05
76009;BMP280;64700;52.130;21.270;2023-03-01T03:00:41;101786.97;;;17.05
76009;BMP280;64700;52.130;21.270;2023-03-01T03:03:15;101790.06;;;17.07
76009;BMP280;64700;52.130;21.270;2023-03-01T03:05:42;101786.25;;;17.04
76009;BMP280;64700;52.130;21.270;2023-03-01T03:08:07;101772.72;;;17.04
76009;BMP280;64700;52.130;21.270;2023-03-01T03:10:35;101769.59;;;17.06
76009;BMP280;64700;52.130;21.270;2023-03-01T03:13:02;101762.72;;;17.01
76009;BMP280;64700;52.130;21.270;2023-03-01T03:15:28;101760.00;;;17.01
76009;BMP280;64700;52.130;21.270;2023-03-01T03:17:54;101761.25;;;16.97
76009;BMP280;64700;52.130;21.270;2023-03-01T03:20:21;101751.13;;;17.01
76009;BMP280;64700;52.130;21.270;2023-03-01T03:22:49;101746.16;;;16.99
76009;BMP280;64700;52.130;21.270;2023-03-01T03:25:16;101753.44;;;17.02
76009;BMP280;64700;52.130;21.270;2023-03-01T03:27:42;101745.03;;;16.97
76009;BMP280;64700;52.130;21.270;2023-03-01T03:30:10;101750.06;;;16.95
76009;BMP280;64700;52.130;21.270;2023-03-01T03:32:40;101749.69;;;16.93
76009;BMP280;64700;52.130;21.270;2023-03-01T03:35:07;101742.38;;;16.93
76009;BMP280;64700;52.130;21.270;2023-03-01T03:37:37;101750.09;;;16.91
76009;BMP280;64700;52.130;21.270;2023-03-01T03:40:21;101750.13;;;16.87
76009;BMP280;64700;52.130;21.270;2023-03-01T03:42:46;101752.06;;;16.87
76009;BMP280;64700;52.130;21.270;2023-03-01T03:45:13;101750.16;;;16.84
76009;BMP280;64700;52.130;21.270;2023-03-01T03:47:39;101743.91;;;16.90
76009;BMP280;64700;52.130;21.270;2023-03-01T03:50:04;101745.84;;;16.90
76009;BMP280;64700;52.130;21.270;2023-03-01T03:52:30;101739.03;;;16.82
76009;BMP280;64700;52.130;21.270;2023-03-01T03:54:55;101728.56;;;16.84
76009;BMP280;64700;52.130;21.270;2023-03-01T03:57:21;101719.66;;;16.87
76009;BMP280;64700;52.130;21.270;2023-03-01T03:59:46;101729.41;;;16.77
76009;BMP280;64700;52.130;21.270;2023-03-01T04:02:12;101737.91;;;16.76
76009;BMP280;64700;52.130;21.270;2023-03-01T04:04:37;101736.72;;;16.77
76009;BMP280;64700;52.130;21.270;2023-03-01T04:07:02;101732.84;;;16.81
76009;BMP280;64700;52.130;21.270;2023-03-01T04:09:28;101724.38;;;16.79
76009;BMP280;64700;52.130;21.270;2023-03-01T04:11:55;101719.75;;;16.76
76009;BMP280;64700;52.130;21.270;2023-03-01T04:14:20;101714.75;;;16.78
76009;BMP280;64700;52.130;21.270;2023-03-01T04:16:46;101708.97;;;16.76
76009;BMP280;64700;52.130;21.270;2023-03-01T04:19:11;101721.28;;;16.77
76009;BMP280;64700;52.130;21.270;2023-03-01T04:21:37;101724.38;;;16.79
76009;BMP280;64700;52.130;21.270;2023-03-01T04:24:03;101726.69;;;16.77
76009;BMP280;64700;52.130;21.270;2023-03-01T04:26:28;101720.22;;;16.71
76009;BMP280;64700;52.130;21.270;2023-03-01T04:28:54;101716.34;;;16.72
76009;BMP280;64700;52.130;21.270;2023-03-01T04:31:19;101718.34;;;16.68
76009;BMP280;64700;52.130;21.270;2023-03-01T04:33:53;101716.38;;;16.69
76009;BMP280;64700;52.130;21.270;2023-03-01T04:36:20;101713.28;;;16.70
76009;BMP280;64700;52.130;21.270;2023-03-01T04:38:46;101713.66;;;16.72
76009;BMP280;64700;52.130;21.270;2023-03-01T04:41:15;101704.84;;;16.65
76009;BMP280;64700;52.130;21.270;2023-03-01T04:43:41;101699.06;;;16.66
76009;BMP280;64700;52.130;21.270;2023-03-01T04:46:13;101701.75;;;16.66
76009;BMP280;64700;52.130;21.270;2023-03-01T04:48:39;101687.47;;;16.66
76009;BMP280;64700;52.130;21.270;2023-03-01T04:51:05;101682.88;;;16.63
76009;BMP280;64700;52.130;21.270;2023-03-01T04:53:31;101692.13;;;16.62
76009;BMP280;64700;52.130;21.270;2023-03-01T04:55:57;101683.66;;;16.60
76009;BMP280;64700;52.130;21.270;2023-03-01T04:58:23;101705.28;;;16.60
76009;BMP280;64700;52.130;21.270;2023-03-01T05:00:49;101699.94;;;16.56
76009;BMP280;64700;52.130;21.270;2023-03-01T05:03:15;101701.03;;;16.59
76009;BMP280;64700;52.130;21.270;2023-03-01T05:05:43;101688.31;;;16.59
76009;BMP280;64700;52.130;21.270;2023-03-01T05:08:09;101689.91;;;16.57
76009;BMP280;64700;52.130;21.270;2023-03-01T05:10:42;101691.81;;;16.56
76009;BMP280;64700;52.130;21.270;2023-03-01T05:13:08;101699.56;;;16.54
76009;BMP280;64700;52.130;21.270;2023-03-01T05:15:33;101705.69;;;16.58
76009;BMP280;64700;52.130;21.270;2023-03-01T05:18:01;101704.09;;;16.61
76009;BMP280;64700;52.130;21.270;2023-03-01T05:20:27;101708.47;;;16.51
76009;BMP280;64700;52.130;21.270;2023-03-01T05:22:54;101710.78;;;16.53
76009;BMP280;64700;52.130;21.270;2023-03-01T05:25:20;101713.47;;;16.53
76009;BMP280;64700;52.130;21.270;2023-03-01T05:30:49;101712.97;;;16.61
76009;BMP280;64700;52.130;21.270;2023-03-01T05:33:16;101727.25;;;16.62
76009;BMP280;64700;52.130;21.270;2023-03-01T05:35:42;101725.00;;;16.57
76009;BMP280;64700;52.130;21.270;2023-03-01T05:38:08;101727.66;;;16.60
76009;BMP280;64700;52.130;21.270;2023-03-01T05:40:34;101736.88;;;16.63
76009;BMP280;64700;52.130;21.270;2023-03-01T05:43:00;101734.53;;;16.68
76009;BMP280;64700;52.130;21.270;2023-03-01T05:45:26;101733.34;;;16.69
76009;BMP280;64700;52.130;21.270;2023-03-01T05:50:44;101735.19;;;16.79
76009;BMP280;64700;52.130;21.270;2023-03-01T05:53:10;101733.63;;;16.82
76009;BMP280;64700;52.130;21.270;2023-03-01T05:55:36;101728.97;;;16.82
76009;BMP280;64700;52.130;21.270;2023-03-01T05:58:03;101736.19;;;16.89
76009;BMP280;64700;52.130;21.270;2023-03-01T06:00:29;101743.13;;;16.90
76009;BMP280;64700;52.130;21.270;2023-03-01T06:02:55;101739.22;;;16.98
76009;BMP280;64700;52.130;21.270;2023-03-01T06:05:21;101740.78;;;16.96
76009;BMP280;64700;52.130;21.270;2023-03-01T06:10:47;101741.03;;;17.08
76009;BMP280;64700;52.130;21.270;2023-03-01T06:13:16;101732.47;;;17.13
76009;BMP280;64700;52.130;21.270;2023-03-01T06:15:56;101737.00;;;17.20
76009;BMP280;64700;52.130;21.270;2023-03-01T06:18:36;101733.94;;;17.18
76009;BMP280;64700;52.130;21.270;2023-03-01T06:21:24;101729.66;;;17.24
76009;BMP280;64700;52.130;21.270;2023-03-01T06:23:50;101728.41;;;17.28
76009;BMP280;64700;52.130;21.270;2023-03-01T06:26:15;101734.47;;;17.36
76009;BMP280;64700;52.130;21.270;2023-03-01T06:28:40;101731.00;;;17.39
76009;BMP280;64700;52.130;21.270;2023-03-01T06:31:06;101734.81;;;17.42
76009;BMP280;64700;52.130;21.270;2023-03-01T06:33:34;101735.97;;;17.41
76009;BMP280;64700;52.130;21.270;2023-03-01T06:36:01;101738.91;;;17.50
76009;BMP280;64700;52.130;21.270;2023-03-01T06:38:26;101737.72;;;17.54
76009;BMP280;64700;52.130;21.270;2023-03-01T06:40:52;101740.78;;;17.56
76009;BMP280;64700;52.130;21.270;2023-03-01T06:43:19;101736.44;;;17.62
76009;BMP280;64700;52.130;21.270;2023-03-01T06:45:44;101735.25;;;17.63
76009;BMP280;64700;52.130;21.270;2023-03-01T06:48:10;101736.69;;;17.72
76009;BMP280;64700;52.130;21.270;2023-03-01T06:50:36;101731.34;;;17.68
76009;BMP280;64700;52.130;21.270;2023-03-01T06:53:03;101743.41;;;17.60
76009;BMP280;64700;52.130;21.270;2023-03-01T06:55:29;101742.19;;;17.68
76009;BMP280;64700;52.130;21.270;2023-03-01T06:57:55;101739.00;;;17.73
76009;BMP280;64700;52.130;21.270;2023-03-01T07:00:21;101744.66;;;17.79
76009;BMP280;64700;52.130;21.270;2023-03-01T07:02:47;101736.13;;;17.84
76009;BMP280;64700;52.130;21.270;2023-03-01T07:05:13;101736.88;;;17.84
76009;BMP280;64700;52.130;21.270;2023-03-01T07:10:56;101735.38;;;17.83
76009;BMP280;64700;52.130;21.270;2023-03-01T07:13:22;101738.84;;;17.80
76009;BMP280;64700;52.130;21.270;2023-03-01T07:15:47;101741.56;;;17.80
76009;BMP280;64700;52.130;21.270;2023-03-01T07:18:13;101742.03;;;17.75
76009;BMP280;64700;52.130;21.270;2023-03-01T07:20:38;101729.63;;;17.78
76009;BMP280;64700;52.130;21.270;2023-03-01T07:26:18;101736.13;;;17.84
76009;BMP280;64700;52.130;21.270;2023-03-01T07:28:44;101730.22;;;17.89
76009;BMP280;64700;52.130;21.270;2023-03-01T07:31:09;101733.69;;;17.89
76009;BMP280;64700;52.130;21.270;2023-03-01T07:33:35;101725.94;;;17.91
76009;BMP280;64700;52.130;21.270;2023-03-01T07:36:00;101720.16;;;17.89
76009;BMP280;64700;52.130;21.270;2023-03-01T07:38:26;101716.66;;;17.92
76009;BMP280;64700;52.130;21.270;2023-03-01T07:40:52;101717.81;;;17.91
76009;BMP280;64700;52.130;21.270;2023-03-01T07:43:21;101708.25;;;17.87
76009;BMP280;64700;52.130;21.270;2023-03-01T07:45:50;101712.00;;;17.93
76009;BMP280;64700;52.130;21.270;2023-03-01T07:48:15;101721.94;;;17.99
76009;BMP280;64700;52.130;21.270;2023-03-01T07:50:41;101723.88;;;17.99
76009;BMP280;64700;52.130;21.270;2023-03-01T07:53:06;101720.41;;;17.98
76009;BMP280;64700;52.130;21.270;2023-03-01T07:55:31;101718.75;;;18.04
76009;BMP280;64700;52.130;21.270;2023-03-01T07:57:57;101722.72;;;18.00
76009;BMP280;64700;52.130;21.270;2023-03-01T08:00:22;101720.41;;;17.98
76009;BMP280;64700;52.130;21.270;2023-03-01T08:02:48;101719.69;;;17.94
76009;BMP280;64700;52.130;21.270;2023-03-01T08:05:13;101727.28;;;18.03
76009;BMP280;64700;52.130;21.270;2023-03-01T08:07:39;101716.94;;;17.98
76009;BMP280;64700;52.130;21.270;2023-03-01T08:10:04;101725.34;;;18.03
76009;BMP280;64700;52.130;21.270;2023-03-01T08:12:38;101723.66;;;18.13
76009;BMP280;64700;52.130;21.270;2023-03-01T08:15:04;101721.63;;;18.17
76009;BMP280;64700;52.130;21.270;2023-03-01T08:17:33;101734.00;;;18.18
76009;BMP280;64700;52.130;21.270;2023-03-01T08:19:58;101731.72;;;18.17
76009;BMP280;64700;52.130;21.270;2023-03-01T08:22:26;101729.50;;;18.12
76009;BMP280;64700;52.130;21.270;2023-03-01T08:24:52;101732.13;;;18.15
76009;BMP280;64700;52.130;21.270;2023-03-01T08:27:17;101730.53;;;18.18
76009;BMP280;64700;52.130;21.270;2023-03-01T08:29:43;101734.34;;;18.20
76009;BMP280;64700;52.130;21.270;2023-03-01T08:32:08;101735.13;;;18.21
76009;BMP280;64700;52.130;21.270;2023-03-01T08:34:34;101732.94;;;18.12
76009;BMP280;64700;52.130;21.270;2023-03-01T08:37:00;101725.09;;;18.18
76009;BMP280;64700;52.130;21.270;2023-03-01T08:39:26;101716.94;;;18.21
76009;BMP280;64700;52.130;21.270;2023-03-01T08:41:51;101723.25;;;18.15
76009;BMP280;64700;52.130;21.270;2023-03-01T08:44:17;101715.81;;;18.19
76009;BMP280;64700;52.130;21.270;2023-03-01T08:46:43;101726.31;;;18.17
76009;BMP280;64700;52.130;21.270;2023-03-01T08:49:10;101724.63;;;18.23
76009;BMP280;64700;52.130;21.270;2023-03-01T08:51:36;101729.28;;;18.22
76009;BMP280;64700;52.130;21.270;2023-03-01T08:54:03;101730.97;;;18.16
76009;BMP280;64700;52.130;21.270;2023-03-01T08:56:28;101733.91;;;18.22
76009;BMP280;64700;52.130;21.270;2023-03-01T08:58:54;101724.28;;;18.21
76009;BMP280;64700;52.130;21.270;2023-03-01T09:01:20;101729.22;;;18.26
76009;BMP280;64700;52.130;21.270;2023-03-01T09:03:45;101728.50;;;18.22
76009;BMP280;64700;52.130;21.270;2023-03-01T09:06:11;101724.34;;;18.17
76009;BMP280;64700;52.130;21.270;2023-03-01T09:08:41;101725.34;;;18.27
76009;BMP280;64700;52.130;21.270;2023-03-01T09:11:06;101718.34;;;18.29
76009;BMP280;64700;52.130;21.270;2023-03-01T09:13:33;101724.59;;;18.26
76009;BMP280;64700;52.130;21.270;2023-03-01T09:15:59;101720.69;;;18.27
76009;BMP280;64700;52.130;21.270;2023-03-01T09:18:25;101723.53;;;18.20
76009;BMP280;64700;52.130;21.270;2023-03-01T09:20:50;101706.81;;;18.25
76009;BMP280;64700;52.130;21.270;2023-03-01T09:23:16;101708.38;;;18.23
76009;BMP280;64700;52.130;21.270;2023-03-01T09:25:47;101705.06;;;18.15
76009;BMP280;64700;52.130;21.270;2023-03-01T09:28:13;101709.34;;;18.13
76009;BMP280;64700;52.130;21.270;2023-03-01T09:30:38;101697.28;;;18.17
76009;BMP280;64700;52.130;21.270;2023-03-01T09:33:03;101697.00;;;18.12
76009;BMP280;64700;52.130;21.270;2023-03-01T09:35:29;101692.81;;;18.07
76009;BMP280;64700;52.130;21.270;2023-03-01T09:37:55;101692.47;;;18.05
76009;BMP280;64700;52.130;21.270;2023-03-01T09:40:21;101694.69;;;18.10
76009;BMP280;64700;52.130;21.270;2023-03-01T09:42:55;101695.81;;;18.13
76009;BMP280;64700;52.130;21.270;2023-03-01T09:45:26;101694.31;;;18.08
76009;BMP280;64700;52.130;21.270;2023-03-01T09:47:52;101689.41;;;18.03
76009;BMP280;64700;52.130;21.270;2023-03-01T09:50:19;101691.78;;;18.01
76009;BMP280;64700;52.130;21.270;2023-03-01T09:55:43;101697.00;;;18.12
76009;BMP280;64700;52.130;21.270;2023-03-01T09:58:29;101699.72;;;18.12
76009;BMP280;64700;52.130;21.270;2023-03-01T10:00:57;101691.16;;;18.13
76009;BMP280;64700;52.130;21.270;2023-03-01T10:08:42;101677.09;;;17.98
76009;BMP280;64700;52.130;21.270;2023-03-01T10:16:28;101670.72;;;18.08
76009;BMP280;64700;52.130;21.270;2023-03-01T10:18:58;101663.16;;;18.00
76009;BMP280;64700;52.130;21.270;2023-03-01T10:21:25;101652.53;;;18.09
76009;BMP280;64700;52.130;21.270;2023-03-01T10:23:51;101647.53;;;18.07
76009;BMP280;64700;52.130;21.270;2023-03-01T10:29:05;101648.47;;;18.01
76009;BMP280;64700;52.130;21.270;2023-03-01T10:36:39;101650.84;;;17.95
76009;BMP280;64700;52.130;21.270;2023-03-01T10:39:11;101655.06;;;18.00
76009;BMP280;64700;52.130;21.270;2023-03-01T10:41:37;101639.22;;;17.98
76009;BMP280;64700;52.130;21.270;2023-03-01T10:44:10;101633.56;;;17.89
76009;BMP280;64700;52.130;21.270;2023-03-01T10:46:59;101630.06;;;17.92
76009;BMP280;64700;52.130;21.270;2023-03-01T10:49:25;101632.31;;;17.97
76009;BMP280;64700;52.130;21.270;2023-03-01T10:51:52;101634.63;;;17.95
76009;BMP280;64700;52.130;21.270;2023-03-01T10:54:20;101632.00;;;17.92
76009;BMP280;64700;52.130;21.270;2023-03-01T10:56:49;101638.28;;;17.85
76009;BMP280;64700;52.130;21.270;2023-03-01T10:59:31;101631.72;;;17.86
76009;BMP280;64700;52.130;21.270;2023-03-01T11:02:04;101627.75;;;17.91
76009;BMP280;64700;52.130;21.270;2023-03-01T11:04:36;101626.75;;;17.81
76009;BMP280;64700;52.130;21.270;2023-03-01T11:07:02;101618.25;;;17.83
76009;BMP280;64700;52.130;21.270;2023-03-01T11:09:31;101638.69;;;17.84
76009;BMP280;64700;52.130;21.270;2023-03-01T11:12:03;101624.44;;;17.80
76009;BMP280;64700;52.130;21.270;2023-03-01T11:14:32;101620.22;;;17.79
76009;BMP280;64700;52.130;21.270;2023-03-01T11:17:03;101621.41;;;17.78
76009;BMP280;64700;52.130;21.270;2023-03-01T11:19:29;101626.75;;;17.81
76009;BMP280;64700;52.130;21.270;2023-03-01T11:24:20;101607.13;;;17.77
76009;BMP280;64700;52.130;21.270;2023-03-01T11:26:50;101612.25;;;17.72
76009;BMP280;64700;52.130;21.270;2023-03-01T11:29:38;101604.69;;;17.59
76009;BMP280;64700;52.130;21.270;2023-03-01T11:32:05;101610.38;;;17.69
76009;BMP280;64700;52.130;21.270;2023-03-01T11:34:54;101607.28;;;17.66
76009;BMP280;64700;52.130;21.270;2023-03-01T11:37:22;101597.97;;;17.71
76009;BMP280;64700;52.130;21.270;2023-03-01T11:39:59;101598.78;;;17.68
76009;BMP280;64700;52.130;21.270;2023-03-01T11:44:56;101605.44;;;17.63
76009;BMP280;64700;52.130;21.270;2023-03-01T11:47:33;101596.94;;;17.61
76009;BMP280;64700;52.130;21.270;2023-03-01T11:55:26;101600.84;;;17.60
76009;BMP280;64700;52.130;21.270;2023-03-01T12:03:21;101590.28;;;17.66
76009;BMP280;64700;52.130;21.270;2023-03-01T12:08:39;101594.59;;;17.63
76009;BMP280;64700;52.130;21.270;2023-03-01T12:11:10;101594.06;;;17.72
76009;BMP280;64700;52.130;21.270;2023-03-01T12:13:55;101600.31;;;17.69
76009;BMP280;64700;52.130;21.270;2023-03-01T12:26:34;101595.31;;;17.67
76009;BMP280;64700;52.130;21.270;2023-03-01T12:29:02;101590.69;;;17.68
76009;BMP280;64700;52.130;21.270;2023-03-01T12:44:11;101570.59;;;17.65
76009;BMP280;64700;52.130;21.270;2023-03-01T12:46:51;101564.50;;;17.61
76009;BMP280;64700;52.130;21.270;2023-03-01T12:54:36;101567.00;;;17.52
76009;BMP280;64700;52.130;21.270;2023-03-01T12:57:50;101569.97;;;17.58
76009;BMP280;64700;52.130;21.270;2023-03-01T12:59:59;101556.09;;;17.56
76009;BMP280;64700;52.130;21.270;2023-03-01T13:02:32;101562.69;;;17.55
76009;BMP280;64700;52.130;21.270;2023-03-01T13:08:29;101552.22;;;17.57
76009;BMP280;64700;52.130;21.270;2023-03-01T13:10:31;101556.84;;;17.56
76009;BMP280;64700;52.130;21.270;2023-03-01T13:15:49;101555.78;;;17.50
76009;BMP280;64700;52.130;21.270;2023-03-01T13:20:48;101551.22;;;17.47
76009;BMP280;64700;52.130;21.270;2023-03-01T13:26:02;101550.53;;;17.43
76009;BMP280;64700;52.130;21.270;2023-03-01T13:31:11;101537.63;;;17.51
76009;BMP280;64700;52.130;21.270;2023-03-01T13:33:56;101533.06;;;17.48
76009;BMP280;64700;52.130;21.270;2023-03-01T13:44:11;101531.88;;;17.49
76009;BMP280;64700;52.130;21.270;2023-03-01T13:46:37;101527.88;;;17.57
76009;BMP280;64700;52.130;21.270;2023-03-01T13:49:03;101526.63;;;17.61
76009;BMP280;64700;52.130;21.270;2023-03-01T13:51:29;101527.81;;;17.60
76009;BMP280;64700;52.130;21.270;2023-03-01T13:53:55;101527.13;;;17.56
76009;BMP280;64700;52.130;21.270;2023-03-01T13:56:25;101519.75;;;17.57
76009;BMP280;64700;52.130;21.270;2023-03-01T14:01:35;101524.28;;;17.63
76009;BMP280;64700;52.130;21.270;2023-03-01T14:04:02;101510.47;;;17.58
76009;BMP280;64700;52.130;21.270;2023-03-01T14:06:30;101516.38;;;17.53
76009;BMP280;64700;52.130;21.270;2023-03-01T14:09:03;101517.59;;;17.48
76009;BMP280;64700;52.130;21.270;2023-03-01T14:16:49;101510.81;;;17.37
76009;BMP280;64700;52.130;21.270;2023-03-01T14:19:19;101516.94;;;17.41
76009;BMP280;64700;52.130;21.270;2023-03-01T14:21:49;101515.84;;;17.38
76009;BMP280;64700;52.130;21.270;2023-03-01T14:24:26;101515.00;;;17.41
76009;BMP280;64700;52.130;21.270;2023-03-01T14:26:52;101501.94;;;17.36
76009;BMP280;64700;52.130;21.270;2023-03-01T14:31:50;101499.31;;;17.33
76009;BMP280;64700;52.130;21.270;2023-03-01T14:40:28;101488.25;;;17.47
76009;BMP280;64700;52.130;21.270;2023-03-01T14:42:55;101490.56;;;17.48
76009;BMP280;64700;52.130;21.270;2023-03-01T14:45:22;101488.16;;;17.54
76009;BMP280;64700;52.130;21.270;2023-03-01T14:47:48;101489.59;;;17.58
76009;BMP280;64700;52.130;21.270;2023-03-01T14:50:24;101493.69;;;17.66
76009;BMP280;64700;52.130;21.270;2023-03-01T14:52:52;101488.91;;;17.54
76009;BMP280;64700;52.130;21.270;2023-03-01T14:55:20;101481.50;;;17.58
76009;BMP280;64700;52.130;21.270;2023-03-01T14:57:48;101489.25;;;17.56
76009;BMP280;64700;52.130;21.270;2023-03-01T15:00:23;101483.16;;;17.52
76009;BMP280;64700;52.130;21.270;2023-03-01T15:02:53;101483.94;;;17.49
76009;BMP280;64700;52.130;21.270;2023-03-01T15:05:52;101482.56;;;17.41
76009;BMP280;64700;52.130;21.270;2023-03-01T15:08:16;101478.34;;;17.40
76009;BMP280;64700;52.130;21.270;2023-03-01T15:10:54;101477.16;;;17.41
76009;BMP280;64700;52.130;21.270;2023-03-01T15:13:24;101476.41;;;17.41
76009;BMP280;64700;52.130;21.270;2023-03-01T15:15:50;101474.16;;;17.36
76009;BMP280;64700;52.130;21.270;2023-03-01T15:18:18;101466.03;;;17.36
76009;BMP280;64700;52.130;21.270;2023-03-01T15:20:44;101468.41;;;17.34
76009;BMP280;64700;52.130;21.270;2023-03-01T15:23:18;101461.81;;;17.35
76009;BMP280;64700;52.130;21.270;2023-03-01T15:25:45;101470.34;;;17.33
76009;BMP280;64700;52.130;21.270;2023-03-01T15:28:12;101464.94;;;17.33
76009;BMP280;64700;52.130;21.270;2023-03-01T15:30:43;101464.50;;;17.35
76009;BMP280;64700;52.130;21.270;2023-03-01T15:33:19;101463.59;;;17.21
76009;BMP280;64700;52.130;21.270;2023-03-01T15:35:46;101463.22;;;17.23
76009;BMP280;64700;52.130;21.270;2023-03-01T15:38:32;101464.31;;;17.25
76009;BMP280;64700;52.130;21.270;2023-03-01T15:40:59;101462.50;;;17.19
76009;BMP280;64700;52.130;21.270;2023-03-01T15:43:42;101462.06;;;17.20
76009;BMP280;64700;52.130;21.270;2023-03-01T15:49:02;101456.44;;;17.11
76009;BMP280;64700;52.130;21.270;2023-03-01T15:51:33;101460.19;;;17.17
76009;BMP280;64700;52.130;21.270;2023-03-01T15:54:00;101456.72;;;17.17
76009;BMP280;64700;52.130;21.270;2023-03-01T15:56:26;101454.13;;;17.10
76009;BMP280;64700;52.130;21.270;2023-03-01T15:58:51;101451.16;;;17.04
76009;BMP280;64700;52.130;21.270;2023-03-01T16:01:17;101452.66;;;17.05
76009;BMP280;64700;52.130;21.270;2023-03-01T16:03:43;101448.84;;;17.03